createdAt,value
2019-04-01T00:00:16.905Z,99.90
2019-04-01T00:02:45.970Z,99.90
2019-04-01T00:05:14.579Z,99.90
2019-04-01T00:07:43.303Z,99.90
2019-04-01T00:10:12.015Z,99.90
2019-04-01T00:12:40.666Z,99.90
2019-04-01T00:15:09.135Z,99.90
2019-04-01T00:17:37.920Z,99.90
2019-04-01T00:20:06.830Z,99.90
2019-04-01T00:22:35.628Z,99.90
2019-04-01T00:25:04.131Z,99.90
2019-04-01T00:27:32.769Z,99.90
2019-04-01T00:30:01.470Z,99.90
2019-04-01T00:32:29.994Z,99.90
2019-04-01T00:34:58.532Z,99.90
2019-04-01T00:37:27.111Z,99.90
2019-04-01T00:39:55.429Z,99.90
2019-04-01T00:42:31.953Z,99.90
2019-04-01T00:45:03.327Z,99.90
2019-04-01T00:47:31.478Z,99.90
2019-04-01T00:50:00.238Z,99.90
2019-04-01T00:52:28.784Z,99.90
2019-04-01T00:54:57.701Z,99.90
2019-04-01T00:57:26.227Z,99.90
2019-04-01T00:59:54.941Z,99.90
2019-04-01T01:02:23.586Z,99.90
2019-04-01T01:04:52.868Z,99.90
2019-04-01T01:07:21.339Z,99.90
2019-04-01T01:09:49.645Z,99.90
2019-04-01T01:12:18.150Z,99.90
2019-04-01T01:14:46.540Z,99.90
2019-04-01T01:17:15.069Z,99.90
2019-04-01T01:19:43.356Z,99.90
2019-04-01T01:22:11.671Z,99.90
2019-04-01T01:24:40.325Z,99.90
2019-04-01T01:27:09.327Z,99.90
2019-04-01T01:29:37.937Z,99.90
2019-04-01T01:32:06.588Z,99.90
2019-04-01T01:34:35.069Z,99.90
2019-04-01T01:37:03.925Z,99.90
2019-04-01T01:39:32.757Z,99.90
2019-04-01T01:42:01.824Z,99.90
2019-04-01T01:44:30.658Z,99.90
2019-04-01T01:46:58.906Z,99.90
2019-04-01T01:49:27.579Z,99.90
2019-04-01T01:51:56.097Z,99.90
2019-04-01T01:54:24.761Z,99.90
2019-04-01T01:56:53.780Z,99.90
2019-04-01T01:59:22.368Z,99.90
2019-04-01T02:01:50.717Z,99.90
2019-04-01T02:04:19.485Z,99.90
2019-04-01T02:06:48.206Z,99.90
2019-04-01T02:09:16.861Z,99.90
2019-04-01T02:11:45.250Z,99.90
2019-04-01T02:14:13.656Z,99.90
2019-04-01T02:16:42.312Z,99.90
2019-04-01T02:19:10.785Z,99.90
2019-04-01T02:21:39.199Z,99.90
2019-04-01T02:24:07.749Z,99.90
2019-04-01T02:26:36.426Z,99.90
2019-04-01T02:29:05.151Z,99.90
2019-04-01T02:31:33.817Z,99.90
2019-04-01T02:34:02.503Z,99.90
2019-04-01T02:36:31.119Z,99.90
2019-04-01T02:38:59.566Z,99.90
2019-04-01T02:41:28.156Z,99.90
2019-04-01T02:43:56.953Z,99.90
2019-04-01T02:46:25.718Z,99.90
2019-04-01T02:48:54.395Z,99.90
2019-04-01T02:51:23.103Z,99.90
2019-04-01T02:53:51.777Z,99.90
2019-04-01T02:56:20.461Z,99.90
2019-04-01T02:58:49.186Z,99.90
2019-04-01T03:01:17.831Z,99.90
2019-04-01T03:03:46.527Z,99.90
2019-04-01T03:06:15.234Z,99.90
2019-04-01T03:08:44.516Z,99.90
2019-04-01T03:11:13.199Z,99.90
2019-04-01T03:13:41.601Z,99.90
2019-04-01T03:16:10.370Z,99.90
2019-04-01T03:18:39.046Z,99.90
2019-04-01T03:21:07.780Z,99.90
2019-04-01T03:23:36.679Z,99.90
2019-04-01T03:26:05.644Z,99.90
2019-04-01T03:28:34.223Z,99.90
2019-04-01T03:31:02.574Z,99.90
2019-04-01T03:33:31.363Z,99.90
2019-04-01T03:36:00.087Z,99.90
2019-04-01T03:38:28.727Z,99.90
2019-04-01T03:40:57.407Z,99.90
2019-04-01T03:43:26.117Z,99.90
2019-04-01T03:45:54.860Z,99.90
2019-04-01T03:48:23.666Z,99.90
2019-04-01T03:50:52.192Z,99.90
2019-04-01T03:53:20.537Z,99.90
2019-04-01T03:55:49.092Z,99.90
2019-04-01T03:58:17.818Z,99.90
2019-04-01T04:00:49.587Z,99.90
2019-04-01T04:03:18.150Z,99.90
2019-04-01T04:05:46.734Z,99.90
2019-04-01T04:08:15.003Z,99.90
2019-04-01T04:10:43.526Z,99.90
2019-04-01T04:13:12.193Z,99.90
2019-04-01T04:15:40.647Z,99.90
2019-04-01T04:18:09.369Z,99.90
2019-04-01T04:20:37.817Z,99.90
2019-04-01T04:23:06.205Z,99.90
2019-04-01T04:25:34.801Z,99.90
2019-04-01T04:28:03.463Z,99.90
2019-04-01T04:30:32.443Z,99.90
2019-04-01T04:33:01.038Z,99.90
2019-04-01T04:35:29.728Z,99.90
2019-04-01T04:37:58.415Z,99.90
2019-04-01T04:40:26.835Z,99.90
2019-04-01T04:42:55.974Z,99.90
2019-04-01T04:45:24.669Z,99.90
2019-04-01T04:47:53.393Z,99.90
2019-04-01T04:50:21.819Z,99.90
2019-04-01T04:52:50.517Z,99.90
2019-04-01T04:55:19.013Z,99.90
2019-04-01T04:57:47.393Z,99.90
2019-04-01T05:00:16.175Z,99.90
2019-04-01T05:02:44.914Z,99.90
2019-04-01T05:05:13.537Z,99.90
2019-04-01T05:07:42.537Z,99.90
2019-04-01T05:10:11.399Z,99.90
2019-04-01T05:12:39.849Z,99.90
2019-04-01T05:15:08.936Z,99.90
2019-04-01T05:17:37.618Z,99.90
2019-04-01T05:20:06.054Z,99.90
2019-04-01T05:22:43.186Z,99.90
2019-04-01T05:25:13.059Z,99.90
2019-04-01T05:27:42.483Z,99.90
2019-04-01T05:30:11.051Z,99.90
2019-04-01T05:32:40.350Z,99.90
2019-04-01T05:35:08.860Z,99.90
2019-04-01T05:37:38.000Z,99.90
2019-04-01T05:40:08.966Z,99.90
2019-04-01T05:42:37.758Z,99.90
2019-04-01T05:45:08.402Z,99.90
2019-04-01T05:47:43.829Z,99.90
2019-04-01T05:50:12.662Z,99.90
2019-04-01T05:52:41.204Z,99.90
2019-04-01T05:55:09.778Z,99.90
2019-04-01T05:57:39.501Z,99.90
2019-04-01T06:00:22.822Z,99.90
2019-04-01T06:02:58.719Z,99.90
2019-04-01T06:05:33.574Z,99.90
2019-04-01T06:08:09.340Z,99.90
2019-04-01T06:10:47.092Z,99.90
2019-04-01T06:13:30.827Z,99.90
2019-04-01T06:16:05.333Z,99.90
2019-04-01T06:18:39.051Z,99.90
2019-04-01T06:21:17.820Z,99.90
2019-04-01T06:23:58.042Z,99.90
2019-04-01T06:26:36.605Z,99.90
2019-04-01T06:29:13.714Z,99.90
2019-04-01T06:31:48.439Z,99.90
2019-04-01T06:34:34.440Z,99.90
2019-04-01T06:37:18.981Z,99.90
2019-04-01T06:39:57.048Z,99.90
2019-04-01T06:42:33.659Z,99.90
2019-04-01T06:45:17.924Z,99.90
2019-04-01T06:47:56.302Z,99.90
2019-04-01T06:50:29.918Z,99.90
2019-04-01T06:53:11.149Z,99.90
2019-04-01T06:55:52.133Z,99.90
2019-04-01T06:58:28.036Z,99.90
2019-04-01T07:01:08.342Z,99.90
2019-04-01T07:03:47.875Z,99.90
2019-04-01T07:06:26.468Z,99.90
2019-04-01T07:09:09.499Z,99.90
2019-04-01T07:11:48.192Z,99.90
2019-04-01T07:14:29.149Z,99.90
2019-04-01T07:17:05.449Z,99.90
2019-04-01T07:19:47.446Z,99.90
2019-04-01T07:22:26.027Z,99.90
2019-04-01T07:25:11.694Z,99.90
2019-04-01T07:27:53.850Z,99.90
2019-04-01T07:30:29.210Z,99.90
2019-04-01T07:33:06.781Z,99.90
2019-04-01T07:35:42.691Z,99.90
2019-04-01T07:38:17.910Z,99.90
2019-04-01T07:40:59.358Z,99.90
2019-04-01T07:43:38.968Z,99.90
2019-04-01T07:46:21.742Z,99.90
2019-04-01T07:48:57.697Z,99.90
2019-04-01T07:51:38.518Z,99.90
2019-04-01T07:54:18.321Z,99.90
2019-04-01T07:57:07.276Z,99.90
2019-04-01T07:59:43.293Z,99.90
2019-04-01T08:02:28.242Z,99.90
2019-04-01T08:05:06.510Z,99.90
2019-04-01T08:07:43.565Z,99.90
2019-04-01T08:10:16.928Z,99.90
2019-04-01T08:12:54.131Z,99.90
2019-04-01T08:15:31.547Z,99.90
2019-04-01T08:18:12.095Z,99.90
2019-04-01T08:20:48.113Z,99.90
2019-04-01T08:23:29.289Z,99.90
2019-04-01T08:26:07.239Z,99.90
2019-04-01T08:28:44.755Z,99.90
2019-04-01T08:31:20.078Z,99.90
2019-04-01T08:33:58.882Z,99.90
2019-04-01T08:36:35.804Z,99.90
2019-04-01T08:39:20.221Z,99.90
2019-04-01T08:41:56.029Z,99.90
2019-04-01T08:44:39.185Z,99.90
2019-04-01T08:47:19.299Z,99.90
2019-04-01T08:49:57.887Z,99.90
2019-04-01T08:52:33.380Z,99.90
2019-04-01T08:55:14.588Z,99.90
2019-04-01T08:57:48.332Z,99.90
2019-04-01T09:00:27.920Z,99.90
2019-04-01T09:03:04.157Z,99.90
2019-04-01T09:05:43.095Z,99.90
2019-04-01T09:08:24.448Z,99.90
2019-04-01T09:10:59.919Z,99.90
2019-04-01T09:13:30.495Z,99.90
2019-04-01T09:16:05.541Z,99.90
2019-04-01T09:18:41.535Z,99.90
2019-04-01T09:21:15.513Z,99.90
2019-04-01T09:23:51.898Z,99.90
2019-04-01T09:26:33.817Z,99.90
2019-04-01T09:29:17.809Z,99.90
2019-04-01T09:31:53.970Z,99.90
2019-04-01T09:34:32.873Z,99.90
2019-04-01T09:37:11.053Z,99.90
2019-04-01T09:39:46.667Z,99.90
2019-04-01T09:42:20.928Z,99.90
2019-04-01T09:45:00.385Z,99.90
2019-04-01T09:47:40.521Z,99.90
2019-04-01T09:50:15.358Z,99.90
2019-04-01T09:53:08.810Z,99.90
2019-04-01T09:55:43.330Z,99.90
2019-04-01T09:58:19.168Z,99.90
2019-04-01T10:00:57.897Z,99.90
2019-04-01T10:03:32.958Z,99.90
2019-04-01T10:06:12.599Z,99.90
2019-04-01T10:08:47.783Z,99.90
2019-04-01T10:11:21.770Z,99.90
2019-04-01T10:13:57.565Z,99.90
2019-04-01T10:16:33.696Z,99.90
2019-04-01T10:19:11.303Z,99.30
2019-04-01T10:21:45.338Z,98.90
2019-04-01T10:24:21.194Z,97.60
2019-04-01T10:26:58.836Z,96.20
2019-04-01T10:29:42.084Z,96.10
2019-04-01T10:32:23.264Z,95.60
2019-04-01T10:35:00.010Z,94.80
2019-04-01T10:37:36.971Z,95.40
2019-04-01T10:40:15.298Z,94.00
2019-04-01T10:42:56.362Z,93.80
2019-04-01T10:45:32.014Z,93.70
2019-04-01T10:48:14.414Z,93.50
2019-04-01T10:50:50.260Z,93.40
2019-04-01T10:53:25.408Z,92.90
2019-04-01T10:56:10.722Z,92.20
2019-04-01T10:58:42.206Z,92.10
2019-04-01T11:01:19.139Z,91.40
2019-04-01T11:03:59.477Z,92.00
2019-04-01T11:06:34.601Z,92.10
2019-04-01T11:09:11.260Z,91.90
2019-04-01T11:11:48.393Z,91.70
2019-04-01T11:14:19.299Z,90.70
2019-04-01T11:16:54.814Z,90.70
2019-04-01T11:19:29.493Z,90.40
2019-04-01T11:22:08.781Z,91.00
2019-04-01T11:24:45.120Z,90.30
2019-04-01T11:27:27.270Z,89.40
2019-04-01T11:30:02.862Z,90.70
2019-04-01T11:32:40.319Z,90.30
2019-04-01T11:35:18.424Z,90.00
2019-04-01T11:37:52.373Z,85.90
2019-04-01T11:40:31.253Z,85.40
2019-04-01T11:43:09.548Z,86.00
2019-04-01T11:45:46.825Z,87.00
2019-04-01T11:48:23.109Z,87.10
2019-04-01T11:51:02.959Z,85.70
2019-04-01T11:53:37.424Z,90.20
2019-04-01T11:56:12.786Z,87.00
2019-04-01T11:58:56.747Z,87.30
2019-04-01T12:01:32.874Z,84.80
2019-04-01T12:04:15.406Z,88.00
2019-04-01T12:06:53.067Z,85.30
2019-04-01T12:09:28.219Z,86.30
2019-04-01T12:12:22.398Z,86.50
2019-04-01T12:14:47.435Z,85.30
2019-04-01T12:17:24.096Z,86.90
2019-04-01T12:20:03.092Z,89.30
2019-04-01T12:22:40.594Z,87.20
2019-04-01T12:25:09.966Z,88.00
2019-04-01T12:27:48.086Z,84.50
2019-04-01T12:30:23.169Z,82.20
2019-04-01T12:32:57.936Z,82.60
2019-04-01T12:35:41.166Z,86.20
2019-04-01T12:38:20.967Z,85.10
2019-04-01T12:40:57.974Z,87.80
2019-04-01T12:43:36.880Z,85.60
2019-04-01T12:46:13.004Z,85.90
2019-04-01T12:48:52.627Z,84.20
2019-04-01T12:51:29.303Z,88.90
2019-04-01T12:54:05.360Z,85.00
2019-04-01T12:56:44.173Z,86.00
2019-04-01T12:59:22.750Z,86.60
2019-04-01T13:02:02.767Z,86.90
2019-04-01T13:04:41.507Z,86.70
2019-04-01T13:07:15.073Z,87.50
2019-04-01T13:09:58.099Z,89.90
2019-04-01T13:12:32.867Z,89.90
2019-04-01T13:15:07.179Z,89.20
2019-04-01T13:17:43.805Z,89.90
2019-04-01T13:20:19.831Z,90.70
2019-04-01T13:22:58.162Z,89.30
2019-04-01T13:25:33.955Z,89.40
2019-04-01T13:28:13.406Z,90.00
2019-04-01T13:30:55.089Z,90.20
2019-04-01T13:33:37.272Z,90.80
2019-04-01T13:36:18.241Z,90.00
2019-04-01T13:38:55.800Z,90.90
2019-04-01T13:41:41.792Z,91.60
2019-04-01T13:44:08.777Z,91.70
2019-04-01T13:46:48.791Z,91.70
2019-04-01T13:49:26.775Z,91.70
2019-04-01T13:52:05.139Z,91.60
2019-04-01T13:54:48.811Z,92.00
2019-04-01T13:57:24.434Z,92.30
2019-04-01T14:00:00.188Z,92.00
2019-04-01T14:02:33.733Z,91.50
2019-04-01T14:05:13.345Z,91.90
2019-04-01T14:07:50.035Z,92.80
2019-04-01T14:10:30.584Z,92.70
2019-04-01T14:13:10.218Z,92.10
2019-04-01T14:15:51.234Z,93.10
2019-04-01T14:18:19.327Z,94.40
2019-04-01T14:20:54.129Z,95.10
2019-04-01T14:23:33.907Z,93.40
2019-04-01T14:26:18.694Z,93.60
2019-04-01T14:28:57.521Z,94.30
2019-04-01T14:31:36.020Z,94.60
2019-04-01T14:34:23.495Z,95.10
2019-04-01T14:36:52.803Z,95.30
2019-04-01T14:39:34.568Z,95.50
2019-04-01T14:42:08.678Z,96.20
2019-04-01T14:44:46.122Z,97.20
2019-04-01T14:47:25.033Z,96.40
2019-04-01T14:50:02.845Z,96.50
2019-04-01T14:52:41.357Z,97.60
2019-04-01T14:55:19.438Z,97.40
2019-04-01T14:58:00.222Z,96.10
2019-04-01T15:00:31.709Z,96.70
2019-04-01T15:03:09.883Z,96.00
2019-04-01T15:05:48.199Z,97.30
2019-04-01T15:08:29.046Z,97.90
2019-04-01T15:11:09.545Z,98.30
2019-04-01T15:13:45.488Z,98.20
2019-04-01T15:16:22.304Z,97.80
2019-04-01T15:18:58.102Z,98.00
2019-04-01T15:21:38.537Z,98.60
2019-04-01T15:24:27.183Z,98.40
2019-04-01T15:27:00.953Z,98.50
2019-04-01T15:29:34.368Z,99.00
2019-04-01T15:32:09.952Z,99.00
2019-04-01T15:34:45.952Z,98.70
2019-04-01T15:37:23.227Z,99.60
2019-04-01T15:39:56.263Z,99.90
2019-04-01T15:42:31.386Z,99.90
2019-04-01T15:45:03.674Z,99.20
2019-04-01T15:47:32.823Z,97.20
2019-04-01T15:50:01.448Z,97.70
2019-04-01T15:52:34.622Z,98.60
2019-04-01T15:55:10.687Z,99.50
2019-04-01T15:57:49.343Z,99.60
2019-04-01T16:00:44.392Z,99.90
2019-04-01T16:03:14.931Z,99.90
2019-04-01T16:05:52.232Z,99.90
2019-04-01T16:08:28.413Z,99.90
2019-04-01T16:11:07.995Z,99.90
2019-04-01T16:13:43.190Z,99.90
2019-04-01T16:16:23.230Z,99.90
2019-04-01T16:19:05.394Z,99.90
2019-04-01T16:21:45.704Z,99.90
2019-04-01T16:24:26.284Z,99.90
2019-04-01T16:27:02.678Z,99.90
2019-04-01T16:29:42.915Z,99.90
2019-04-01T16:32:25.570Z,99.90
2019-04-01T16:35:07.515Z,99.90
2019-04-01T16:37:50.614Z,99.90
2019-04-01T16:40:24.973Z,99.90
2019-04-01T16:43:01.543Z,99.90
2019-04-01T16:45:39.654Z,99.90
2019-04-01T16:48:15.163Z,99.90
2019-04-01T16:50:50.280Z,99.90
2019-04-01T16:53:30.517Z,99.90
2019-04-01T16:56:09.537Z,99.90
2019-04-01T16:58:52.104Z,99.90
2019-04-01T17:01:28.490Z,99.90
2019-04-01T17:04:04.522Z,99.90
2019-04-01T17:06:49.657Z,99.90
2019-04-01T17:09:28.068Z,99.90
2019-04-01T17:11:59.494Z,99.90
2019-04-01T17:14:36.636Z,99.90
2019-04-01T17:17:20.125Z,99.90
2019-04-01T17:20:03.909Z,99.90
2019-04-01T17:22:37.554Z,99.90
2019-04-01T17:25:16.261Z,99.90
2019-04-01T17:27:51.659Z,99.90
2019-04-01T17:30:28.163Z,99.90
2019-04-01T17:33:08.399Z,99.90
2019-04-01T17:35:42.360Z,99.90
2019-04-01T17:38:17.551Z,99.90
2019-04-01T17:40:59.021Z,99.90
2019-04-01T17:43:34.198Z,99.90
2019-04-01T17:46:09.477Z,99.90
2019-04-01T17:48:47.214Z,99.90
2019-04-01T17:51:20.042Z,99.90
2019-04-01T17:54:00.873Z,99.90
2019-04-01T17:56:35.105Z,99.90
2019-04-01T17:59:12.708Z,99.90
2019-04-01T18:01:49.040Z,99.90
2019-04-01T18:04:28.711Z,99.90
2019-04-01T18:07:05.025Z,99.90
2019-04-01T18:09:43.328Z,99.90
2019-04-01T18:12:17.460Z,99.90
2019-04-01T18:14:53.875Z,99.90
2019-04-01T18:17:31.267Z,99.90
2019-04-01T18:20:05.914Z,99.90
2019-04-01T18:22:43.610Z,99.90
2019-04-01T18:25:23.168Z,99.90
2019-04-01T18:28:00.192Z,99.90
2019-04-01T18:30:41.097Z,99.90
2019-04-01T18:33:15.350Z,99.90
2019-04-01T18:35:54.241Z,99.90
2019-04-01T18:38:33.711Z,99.90
2019-04-01T18:41:14.930Z,99.90
2019-04-01T18:43:51.653Z,99.90
2019-04-01T18:46:25.963Z,99.90
2019-04-01T18:49:06.845Z,99.90
2019-04-01T18:51:44.606Z,99.90
2019-04-01T18:54:24.084Z,99.90
2019-04-01T18:56:58.671Z,99.90
2019-04-01T18:59:34.105Z,99.90
2019-04-01T19:02:08.449Z,99.90
2019-04-01T19:04:41.714Z,99.90
2019-04-01T19:07:26.267Z,99.90
2019-04-01T19:10:05.908Z,99.90
2019-04-01T19:12:27.357Z,99.90
2019-04-01T19:14:56.648Z,99.90
2019-04-01T19:17:25.304Z,99.90
2019-04-01T19:19:54.184Z,99.90
2019-04-01T19:22:24.228Z,99.90
2019-04-01T19:24:52.747Z,99.90
2019-04-01T19:27:22.118Z,99.90
2019-04-01T19:29:51.301Z,99.90
2019-04-01T19:32:19.820Z,99.90
2019-04-01T19:34:48.457Z,99.90
2019-04-01T19:37:18.270Z,99.90
2019-04-01T19:39:47.333Z,99.90
2019-04-01T19:42:17.924Z,99.90
2019-04-01T19:44:46.722Z,99.90
2019-04-01T19:47:15.172Z,99.90
2019-04-01T19:49:43.914Z,99.90
2019-04-01T19:52:12.485Z,99.90
2019-04-01T19:54:42.185Z,99.90
2019-04-01T19:57:11.763Z,99.90
2019-04-01T19:59:40.623Z,99.90
2019-04-01T20:02:09.728Z,99.90
2019-04-01T20:04:38.627Z,99.90
2019-04-01T20:07:07.323Z,99.90
2019-04-01T20:09:36.494Z,99.90
2019-04-01T20:12:06.175Z,99.90
2019-04-01T20:14:34.936Z,99.90
2019-04-01T20:17:04.368Z,99.90
2019-04-01T20:19:33.199Z,99.90
2019-04-01T20:22:03.017Z,99.90
2019-04-01T20:24:31.907Z,99.90
2019-04-01T20:27:01.110Z,99.90
2019-04-01T20:29:30.375Z,99.90
2019-04-01T20:31:59.955Z,99.90
2019-04-01T20:34:28.629Z,99.90
2019-04-01T20:36:57.296Z,99.90
2019-04-01T20:39:26.162Z,99.90
2019-04-01T20:41:55.161Z,99.90
2019-04-01T20:44:23.809Z,99.90
2019-04-01T20:46:52.656Z,99.90
2019-04-01T20:49:21.651Z,99.90
2019-04-01T20:51:50.230Z,99.90
2019-04-01T20:54:18.911Z,99.90
2019-04-01T20:56:48.204Z,99.90
2019-04-01T20:59:23.251Z,99.90
2019-04-01T21:01:52.580Z,99.90
2019-04-01T21:04:22.292Z,99.90
2019-04-01T21:06:50.977Z,99.90
2019-04-01T21:09:19.527Z,99.90
2019-04-01T21:11:48.250Z,99.90
2019-04-01T21:14:16.953Z,99.90
2019-04-01T21:16:45.673Z,99.90
2019-04-01T21:19:14.325Z,99.90
2019-04-01T21:21:43.426Z,99.90
2019-04-01T21:24:13.177Z,99.90
2019-04-01T21:26:41.834Z,99.90
2019-04-01T21:29:10.311Z,99.90
2019-04-01T21:31:39.007Z,99.90
2019-04-01T21:34:07.864Z,99.90
2019-04-01T21:36:37.160Z,99.90
2019-04-01T21:39:07.119Z,99.90
2019-04-01T21:41:35.804Z,99.90
2019-04-01T21:44:04.249Z,99.90
2019-04-01T21:46:34.722Z,99.90
2019-04-01T21:49:03.272Z,99.90
2019-04-01T21:51:33.161Z,99.90
2019-04-01T21:54:02.757Z,99.90
2019-04-01T21:56:31.527Z,99.90
2019-04-01T21:59:00.248Z,99.90
2019-04-01T22:01:29.083Z,99.90
2019-04-01T22:03:57.655Z,99.90
2019-04-01T22:06:26.334Z,99.90
2019-04-01T22:08:55.081Z,99.90
2019-04-01T22:11:23.747Z,99.90
2019-04-01T22:13:52.436Z,99.90
2019-04-01T22:16:21.105Z,99.90
2019-04-01T22:18:49.770Z,99.90
2019-04-01T22:21:18.236Z,99.90
2019-04-01T22:23:47.088Z,99.90
2019-04-01T22:26:15.990Z,99.90
2019-04-01T22:28:44.698Z,99.90
2019-04-01T22:31:15.182Z,99.90
2019-04-01T22:33:43.892Z,99.90
2019-04-01T22:36:12.622Z,99.90
2019-04-01T22:38:41.265Z,99.90
2019-04-01T22:41:09.952Z,99.90
2019-04-01T22:43:38.805Z,99.90
2019-04-01T22:46:07.765Z,99.90
2019-04-01T22:48:36.113Z,99.90
2019-04-01T22:51:04.949Z,99.90
2019-04-01T22:53:33.664Z,99.90
2019-04-01T22:56:02.282Z,99.90
2019-04-01T22:58:30.984Z,99.90
2019-04-01T23:00:59.683Z,99.90
2019-04-01T23:03:28.339Z,99.90
2019-04-01T23:05:57.095Z,99.90
2019-04-01T23:08:25.612Z,99.90
2019-04-01T23:10:56.409Z,99.90
2019-04-01T23:13:34.177Z,99.90
2019-04-01T23:16:02.921Z,99.90
2019-04-01T23:18:31.710Z,99.90
2019-04-01T23:21:01.261Z,99.90
2019-04-01T23:23:31.157Z,99.90
2019-04-01T23:25:59.849Z,99.90
2019-04-01T23:28:28.223Z,99.90
2019-04-01T23:30:57.186Z,99.90
2019-04-01T23:33:25.926Z,99.90
2019-04-01T23:35:54.555Z,99.90
2019-04-01T23:38:23.241Z,99.90
2019-04-01T23:40:51.546Z,99.90
2019-04-01T23:43:20.206Z,99.90
2019-04-01T23:45:49.155Z,99.90
2019-04-01T23:48:18.834Z,99.90
2019-04-01T23:50:47.273Z,99.90
2019-04-01T23:53:15.969Z,99.90
2019-04-01T23:55:44.884Z,99.90
2019-04-01T23:58:13.548Z,99.90
